sensor_id;sensor_type;location;lat;lon;timestamp;noise_LAeq;noise_LA_min;noise_LA_max;noise_LA01;noise_LA95
66747;Laerm;53658;50.742;10.864;2023-03-05T00:01:10;38.57;35.66;40.80;;
66747;Laerm;53658;50.742;10.864;2023-03-05T00:03:37;38.52;35.04;41.06;;
66747;Laerm;53658;50.742;10.864;2023-03-05T00:06:03;38.31;35.36;40.89;;
66747;Laerm;53658;50.742;10.864;2023-03-05T00:08:29;38.29;35.04;40.71;;
66747;Laerm;53658;50.742;10.864;2023-03-05T00:13:22;38.25;35.36;40.62;;
66747;Laerm;53658;50.742;10.864;2023-03-05T00:15:48;38.26;35.04;40.89;;
66747;Laerm;53658;50.742;10.864;2023-03-05T00:18:14;38.21;35.01;40.43;;
66747;Laerm;53658;50.742;10.864;2023-03-05T00:20:40;38.22;35.04;40.43;;
66747;Laerm;53658;50.742;10.864;2023-03-05T00:23:06;38.20;35.36;40.62;;
66747;Laerm;53658;50.742;10.864;2023-03-05T00:25:34;38.22;35.36;40.53;;
66747;Laerm;53658;50.742;10.864;2023-03-05T00:28:01;38.24;35.36;40.71;;
66747;Laerm;53658;50.742;10.864;2023-03-05T00:30:27;38.25;34.69;40.53;;
66747;Laerm;53658;50.742;10.864;2023-03-05T00:32:53;38.24;34.69;40.79;;
66747;Laerm;53658;50.742;10.864;2023-03-05T00:35:19;38.25;34.69;40.71;;
66747;Laerm;53658;50.742;10.864;2023-03-05T00:37:45;38.16;34.69;40.53;;
66747;Laerm;53658;50.742;10.864;2023-03-05T00:40:11;38.18;33.90;40.43;;
66747;Laerm;53658;50.742;10.864;2023-03-05T00:42:37;38.17;35.04;40.53;;
66747;Laerm;53658;50.742;10.864;2023-03-05T00:45:05;38.17;34.31;40.43;;
66747;Laerm;53658;50.742;10.864;2023-03-05T00:47:31;38.24;35.36;41.14;;
66747;Laerm;53658;50.742;10.864;2023-03-05T00:49:57;38.23;34.69;41.22;;
66747;Laerm;53658;50.742;10.864;2023-03-05T00:52:23;38.19;35.36;40.71;;
66747;Laerm;53658;50.742;10.864;2023-03-05T00:54:49;38.20;35.36;40.53;;
66747;Laerm;53658;50.742;10.864;2023-03-05T00:57:15;38.21;35.04;40.43;;
66747;Laerm;53658;50.742;10.864;2023-03-05T00:59:40;38.26;34.69;40.53;;
66747;Laerm;53658;50.742;10.864;2023-03-05T01:02:07;38.27;35.36;40.53;;
66747;Laerm;53658;50.742;10.864;2023-03-05T01:04:33;38.26;35.31;42.47;;
66747;Laerm;53658;50.742;10.864;2023-03-05T01:06:58;38.28;35.36;40.43;;
66747;Laerm;53658;50.742;10.864;2023-03-05T01:09:24;38.29;35.36;40.89;;
66747;Laerm;53658;50.742;10.864;2023-03-05T01:11:51;38.31;35.36;40.62;;
66747;Laerm;53658;50.742;10.864;2023-03-05T01:14:17;38.36;35.36;40.62;;
66747;Laerm;53658;50.742;10.864;2023-03-05T01:16:44;38.38;35.66;40.71;;
66747;Laerm;53658;50.742;10.864;2023-03-05T01:19:10;38.44;35.04;40.71;;
66747;Laerm;53658;50.742;10.864;2023-03-05T01:21:37;38.43;35.66;40.89;;
66747;Laerm;53658;50.742;10.864;2023-03-05T01:24:03;38.46;35.36;40.62;;
66747;Laerm;53658;50.742;10.864;2023-03-05T01:26:29;38.47;35.36;40.89;;
66747;Laerm;53658;50.742;10.864;2023-03-05T01:28:55;38.46;35.04;40.98;;
66747;Laerm;53658;50.742;10.864;2023-03-05T01:31:21;38.48;35.36;40.71;;
66747;Laerm;53658;50.742;10.864;2023-03-05T01:33:47;38.48;35.36;40.71;;
66747;Laerm;53658;50.742;10.864;2023-03-05T01:36:14;38.56;35.66;41.22;;
66747;Laerm;53658;50.742;10.864;2023-03-05T01:38:42;38.56;35.66;41.06;;
66747;Laerm;53658;50.742;10.864;2023-03-05T01:41:10;38.61;35.66;41.46;;
66747;Laerm;53658;50.742;10.864;2023-03-05T01:43:37;38.55;35.04;42.16;;
66747;Laerm;53658;50.742;10.864;2023-03-05T01:46:33;38.60;35.66;40.98;;
66747;Laerm;53658;50.742;10.864;2023-03-05T01:49:32;38.60;35.66;40.98;;
66747;Laerm;53658;50.742;10.864;2023-03-05T01:52:06;38.58;35.94;40.98;;
66747;Laerm;53658;50.742;10.864;2023-03-05T01:57:09;38.59;35.36;40.98;;
66747;Laerm;53658;50.742;10.864;2023-03-05T01:59:40;38.58;35.66;40.71;;
66747;Laerm;53658;50.742;10.864;2023-03-05T02:02:08;38.57;35.66;41.30;;
66747;Laerm;53658;50.742;10.864;2023-03-05T02:04:45;38.58;35.66;42.65;;
66747;Laerm;53658;50.742;10.864;2023-03-05T02:07:14;38.59;35.94;42.65;;
66747;Laerm;53658;50.742;10.864;2023-03-05T02:09:41;38.63;35.31;45.33;;
66747;Laerm;53658;50.742;10.864;2023-03-05T02:12:10;38.64;35.36;41.30;;
66747;Laerm;53658;50.742;10.864;2023-03-05T02:14:37;38.65;34.69;42.65;;
66747;Laerm;53658;50.742;10.864;2023-03-05T02:17:07;38.66;35.94;41.75;;
66747;Laerm;53658;50.742;10.864;2023-03-05T02:19:49;38.59;35.94;41.96;;
66747;Laerm;53658;50.742;10.864;2023-03-05T02:22:17;38.65;34.69;41.46;;
66747;Laerm;53658;50.742;10.864;2023-03-05T02:24:43;38.67;35.94;41.38;;
66747;Laerm;53658;50.742;10.864;2023-03-05T02:27:12;38.66;35.86;41.06;;
66747;Laerm;53658;50.742;10.864;2023-03-05T02:29:42;38.66;35.36;41.06;;
66747;Laerm;53658;50.742;10.864;2023-03-05T02:32:09;38.67;35.04;40.89;;
66747;Laerm;53658;50.742;10.864;2023-03-05T02:34:36;38.61;35.36;40.98;;
66747;Laerm;53658;50.742;10.864;2023-03-05T02:37:03;38.64;35.04;40.62;;
66747;Laerm;53658;50.742;10.864;2023-03-05T02:39:31;38.61;35.66;41.06;;
66747;Laerm;53658;50.742;10.864;2023-03-05T02:41:57;38.69;35.04;40.89;;
66747;Laerm;53658;50.742;10.864;2023-03-05T02:44:23;38.65;35.66;41.03;;
66747;Laerm;53658;50.742;10.864;2023-03-05T02:46:49;38.63;35.94;41.14;;
66747;Laerm;53658;50.742;10.864;2023-03-05T02:49:15;38.62;35.36;41.06;;
66747;Laerm;53658;50.742;10.864;2023-03-05T02:51:41;38.62;35.04;41.06;;
66747;Laerm;53658;50.742;10.864;2023-03-05T02:54:07;38.67;35.04;40.80;;
66747;Laerm;53658;50.742;10.864;2023-03-05T02:56:34;38.62;35.36;40.89;;
66747;Laerm;53658;50.742;10.864;2023-03-05T02:59:00;38.62;35.66;40.98;;
66747;Laerm;53658;50.742;10.864;2023-03-05T03:01:26;38.59;35.66;41.06;;
66747;Laerm;53658;50.742;10.864;2023-03-05T03:03:54;38.62;35.66;41.96;;
66747;Laerm;53658;50.742;10.864;2023-03-05T03:06:20;38.60;35.36;40.71;;
66747;Laerm;53658;50.742;10.864;2023-03-05T03:08:46;38.58;35.66;40.80;;
66747;Laerm;53658;50.742;10.864;2023-03-05T03:11:12;38.57;35.36;41.22;;
66747;Laerm;53658;50.742;10.864;2023-03-05T03:13:39;38.61;35.66;48.02;;
66747;Laerm;53658;50.742;10.864;2023-03-05T03:16:08;38.70;35.94;41.22;;
66747;Laerm;53658;50.742;10.864;2023-03-05T03:18:35;38.64;35.66;41.61;;
66747;Laerm;53658;50.742;10.864;2023-03-05T03:21:02;38.65;35.36;41.14;;
66747;Laerm;53658;50.742;10.864;2023-03-05T03:23:28;38.64;34.69;41.38;;
66747;Laerm;53658;50.742;10.864;2023-03-05T03:25:53;38.61;35.66;41.30;;
66747;Laerm;53658;50.742;10.864;2023-03-05T03:28:19;38.58;35.66;40.71;;
66747;Laerm;53658;50.742;10.864;2023-03-05T03:30:45;38.59;34.69;40.98;;
66747;Laerm;53658;50.742;10.864;2023-03-05T03:33:11;38.60;35.36;40.89;;
66747;Laerm;53658;50.742;10.864;2023-03-05T03:35:37;38.65;35.04;41.06;;
66747;Laerm;53658;50.742;10.864;2023-03-05T03:38:04;38.61;35.94;40.62;;
66747;Laerm;53658;50.742;10.864;2023-03-05T03:40:30;38.63;35.66;40.80;;
66747;Laerm;53658;50.742;10.864;2023-03-05T03:42:56;38.64;35.94;40.89;;
66747;Laerm;53658;50.742;10.864;2023-03-05T03:45:22;38.63;35.36;40.98;;
66747;Laerm;53658;50.742;10.864;2023-03-05T03:47:49;38.64;35.94;41.06;;
66747;Laerm;53658;50.742;10.864;2023-03-05T03:50:15;38.63;35.94;40.89;;
66747;Laerm;53658;50.742;10.864;2023-03-05T03:52:41;38.61;35.66;40.98;;
66747;Laerm;53658;50.742;10.864;2023-03-05T03:55:07;38.65;34.69;40.62;;
66747;Laerm;53658;50.742;10.864;2023-03-05T03:57:33;38.67;35.66;40.80;;
66747;Laerm;53658;50.742;10.864;2023-03-05T03:59:59;38.64;35.04;40.89;;
66747;Laerm;53658;50.742;10.864;2023-03-05T04:02:25;38.66;35.66;41.14;;
66747;Laerm;53658;50.742;10.864;2023-03-05T04:04:52;38.67;35.36;40.80;;
66747;Laerm;53658;50.742;10.864;2023-03-05T04:07:18;38.68;35.36;41.68;;
66747;Laerm;53658;50.742;10.864;2023-03-05T04:09:44;38.74;35.66;42.93;;
66747;Laerm;53658;50.742;10.864;2023-03-05T04:12:10;38.72;35.66;40.80;;
66747;Laerm;53658;50.742;10.864;2023-03-05T04:14:36;38.71;35.36;40.98;;
66747;Laerm;53658;50.742;10.864;2023-03-05T04:17:02;38.68;35.66;40.80;;
66747;Laerm;53658;50.742;10.864;2023-03-05T04:19:28;38.63;35.66;40.80;;
66747;Laerm;53658;50.742;10.864;2023-03-05T04:21:56;38.60;35.94;40.53;;
66747;Laerm;53658;50.742;10.864;2023-03-05T04:24:22;38.61;35.66;40.89;;
66747;Laerm;53658;50.742;10.864;2023-03-05T04:26:48;38.57;35.86;40.89;;
66747;Laerm;53658;50.742;10.864;2023-03-05T04:29:14;38.61;35.66;41.38;;
66747;Laerm;53658;50.742;10.864;2023-03-05T04:31:40;38.60;35.36;41.14;;
66747;Laerm;53658;50.742;10.864;2023-03-05T04:34:06;38.60;35.36;40.80;;
66747;Laerm;53658;50.742;10.864;2023-03-05T04:36:32;38.58;35.59;40.80;;
66747;Laerm;53658;50.742;10.864;2023-03-05T04:38:59;38.58;35.66;40.71;;
66747;Laerm;53658;50.742;10.864;2023-03-05T04:41:25;38.57;35.36;40.62;;
66747;Laerm;53658;50.742;10.864;2023-03-05T04:43:51;38.59;35.04;40.89;;
66747;Laerm;53658;50.742;10.864;2023-03-05T04:46:18;38.58;35.36;40.79;;
66747;Laerm;53658;50.742;10.864;2023-03-05T04:48:45;38.61;35.66;40.62;;
66747;Laerm;53658;50.742;10.864;2023-03-05T04:51:12;38.58;35.36;40.98;;
66747;Laerm;53658;50.742;10.864;2023-03-05T04:53:38;38.59;35.04;40.80;;
66747;Laerm;53658;50.742;10.864;2023-03-05T04:56:04;38.58;35.94;40.80;;
66747;Laerm;53658;50.742;10.864;2023-03-05T04:58:31;38.58;35.36;40.98;;
66747;Laerm;53658;50.742;10.864;2023-03-05T05:01:01;38.58;35.66;41.06;;
66747;Laerm;53658;50.742;10.864;2023-03-05T05:03:28;38.57;35.66;40.98;;
66747;Laerm;53658;50.742;10.864;2023-03-05T05:05:56;38.58;35.66;40.71;;
66747;Laerm;53658;50.742;10.864;2023-03-05T05:08:23;38.57;35.36;41.06;;
66747;Laerm;53658;50.742;10.864;2023-03-05T05:11:01;38.69;36.20;41.38;;
66747;Laerm;53658;50.742;10.864;2023-03-05T05:13:29;38.66;35.94;40.89;;
66747;Laerm;53658;50.742;10.864;2023-03-05T05:15:56;38.68;35.36;40.98;;
66747;Laerm;53658;50.742;10.864;2023-03-05T05:18:23;38.63;35.04;40.98;;
66747;Laerm;53658;50.742;10.864;2023-03-05T05:20:49;38.61;35.66;40.98;;
66747;Laerm;53658;50.742;10.864;2023-03-05T05:23:17;38.61;35.36;40.80;;
66747;Laerm;53658;50.742;10.864;2023-03-05T05:25:43;38.62;35.36;40.98;;
66747;Laerm;53658;50.742;10.864;2023-03-05T05:28:11;38.60;35.04;40.80;;
66747;Laerm;53658;50.742;10.864;2023-03-05T05:30:37;38.60;35.66;40.71;;
66747;Laerm;53658;50.742;10.864;2023-03-05T05:33:03;38.59;35.66;41.06;;
66747;Laerm;53658;50.742;10.864;2023-03-05T05:35:30;38.69;35.66;40.89;;
66747;Laerm;53658;50.742;10.864;2023-03-05T05:37:56;38.62;35.94;40.71;;
66747;Laerm;53658;50.742;10.864;2023-03-05T05:40:22;38.61;34.69;41.30;;
66747;Laerm;53658;50.742;10.864;2023-03-05T05:42:48;38.58;35.94;40.98;;
66747;Laerm;53658;50.742;10.864;2023-03-05T05:45:14;38.63;35.66;41.38;;
66747;Laerm;53658;50.742;10.864;2023-03-05T05:47:41;38.66;35.04;41.30;;
66747;Laerm;53658;50.742;10.864;2023-03-05T05:50:09;38.60;35.94;40.89;;
66747;Laerm;53658;50.742;10.864;2023-03-05T05:52:36;38.60;35.36;41.30;;
66747;Laerm;53658;50.742;10.864;2023-03-05T05:55:02;38.64;35.66;41.61;;
66747;Laerm;53658;50.742;10.864;2023-03-05T05:57:28;38.60;35.94;41.22;;
66747;Laerm;53658;50.742;10.864;2023-03-05T05:59:54;38.61;35.36;41.30;;
66747;Laerm;53658;50.742;10.864;2023-03-05T06:02:20;38.55;35.66;40.71;;
66747;Laerm;53658;50.742;10.864;2023-03-05T06:04:46;38.64;35.66;41.53;;
66747;Laerm;53658;50.742;10.864;2023-03-05T06:07:12;38.63;35.66;42.16;;
66747;Laerm;53658;50.742;10.864;2023-03-05T06:09:38;38.57;35.66;40.89;;
66747;Laerm;53658;50.742;10.864;2023-03-05T06:12:05;38.62;35.66;41.30;;
66747;Laerm;53658;50.742;10.864;2023-03-05T06:14:31;38.59;35.36;40.98;;
66747;Laerm;53658;50.742;10.864;2023-03-05T06:16:56;38.57;35.36;41.06;;
66747;Laerm;53658;50.742;10.864;2023-03-05T06:19:22;38.68;35.36;41.30;;
66747;Laerm;53658;50.742;10.864;2023-03-05T06:21:48;38.81;35.66;41.19;;
66747;Laerm;53658;50.742;10.864;2023-03-05T06:24:14;38.86;35.94;41.46;;
66747;Laerm;53658;50.742;10.864;2023-03-05T06:26:40;38.62;35.66;40.71;;
66747;Laerm;53658;50.742;10.864;2023-03-05T06:29:06;38.62;35.66;40.71;;
66747;Laerm;53658;50.742;10.864;2023-03-05T06:31:32;38.61;35.66;40.98;;
66747;Laerm;53658;50.742;10.864;2023-03-05T06:33:59;38.59;35.36;40.89;;
66747;Laerm;53658;50.742;10.864;2023-03-05T06:36:28;38.70;35.36;41.14;;
66747;Laerm;53658;50.742;10.864;2023-03-05T06:38:55;38.91;35.94;41.75;;
66747;Laerm;53658;50.742;10.864;2023-03-05T06:41:27;38.90;35.94;41.38;;
66747;Laerm;53658;50.742;10.864;2023-03-05T06:43:54;38.75;35.94;40.80;;
66747;Laerm;53658;50.742;10.864;2023-03-05T06:46:24;38.65;35.59;40.80;;
66747;Laerm;53658;50.742;10.864;2023-03-05T06:48:54;38.59;35.36;40.71;;
66747;Laerm;53658;50.742;10.864;2023-03-05T06:51:32;38.65;35.36;40.71;;
66747;Laerm;53658;50.742;10.864;2023-03-05T06:54:01;38.69;35.66;41.46;;
66747;Laerm;53658;50.742;10.864;2023-03-05T06:56:28;38.69;35.36;41.38;;
66747;Laerm;53658;50.742;10.864;2023-03-05T06:58:54;38.81;35.04;42.47;;
66747;Laerm;53658;50.742;10.864;2023-03-05T07:01:20;38.62;35.36;40.80;;
66747;Laerm;53658;50.742;10.864;2023-03-05T07:03:50;38.62;35.36;40.80;;
66747;Laerm;53658;50.742;10.864;2023-03-05T07:06:17;38.61;35.94;41.22;;
66747;Laerm;53658;50.742;10.864;2023-03-05T07:08:43;38.61;35.66;40.98;;
66747;Laerm;53658;50.742;10.864;2023-03-05T07:11:12;38.62;35.66;40.80;;
66747;Laerm;53658;50.742;10.864;2023-03-05T07:13:38;38.61;35.36;40.53;;
66747;Laerm;53658;50.742;10.864;2023-03-05T07:16:10;38.62;35.36;41.14;;
66747;Laerm;53658;50.742;10.864;2023-03-05T07:18:38;38.65;35.04;40.89;;
66747;Laerm;53658;50.742;10.864;2023-03-05T07:21:07;38.63;35.66;40.98;;
66747;Laerm;53658;50.742;10.864;2023-03-05T07:23:34;38.63;35.36;40.80;;
66747;Laerm;53658;50.742;10.864;2023-03-05T07:26:05;38.60;35.94;40.62;;
66747;Laerm;53658;50.742;10.864;2023-03-05T07:28:32;38.60;35.66;41.22;;
66747;Laerm;53658;50.742;10.864;2023-03-05T07:31:05;38.62;35.36;40.98;;
66747;Laerm;53658;50.742;10.864;2023-03-05T07:33:33;38.66;35.66;40.80;;
66747;Laerm;53658;50.742;10.864;2023-03-05T07:36:01;38.66;35.94;40.98;;
66747;Laerm;53658;50.742;10.864;2023-03-05T07:38:32;38.61;35.04;40.98;;
66747;Laerm;53658;50.742;10.864;2023-03-05T07:41:03;38.61;35.04;41.06;;
66747;Laerm;53658;50.742;10.864;2023-03-05T07:43:29;38.64;35.36;40.98;;
66747;Laerm;53658;50.742;10.864;2023-03-05T07:45:55;38.62;35.36;41.06;;
66747;Laerm;53658;50.742;10.864;2023-03-05T07:48:22;38.59;35.66;40.71;;
66747;Laerm;53658;50.742;10.864;2023-03-05T07:50:48;38.64;35.36;41.61;;
66747;Laerm;53658;50.742;10.864;2023-03-05T07:53:15;38.63;34.69;41.22;;
66747;Laerm;53658;50.742;10.864;2023-03-05T07:55:46;38.63;35.66;40.98;;
66747;Laerm;53658;50.742;10.864;2023-03-05T07:58:13;38.63;35.66;40.80;;
66747;Laerm;53658;50.742;10.864;2023-03-05T08:00:39;38.62;35.66;40.98;;
66747;Laerm;53658;50.742;10.864;2023-03-05T08:03:06;38.62;35.66;40.80;;
66747;Laerm;53658;50.742;10.864;2023-03-05T08:05:33;38.64;35.66;40.98;;
66747;Laerm;53658;50.742;10.864;2023-03-05T08:07:59;38.64;35.94;41.06;;
66747;Laerm;53658;50.742;10.864;2023-03-05T08:10:25;38.69;35.94;40.71;;
66747;Laerm;53658;50.742;10.864;2023-03-05T08:12:51;38.67;35.66;40.98;;
66747;Laerm;53658;50.742;10.864;2023-03-05T08:15:18;38.68;35.94;40.71;;
66747;Laerm;53658;50.742;10.864;2023-03-05T08:17:44;38.68;35.94;40.80;;
66747;Laerm;53658;50.742;10.864;2023-03-05T08:20:10;38.69;36.20;40.53;;
66747;Laerm;53658;50.742;10.864;2023-03-05T08:22:37;38.71;35.66;42.22;;
66747;Laerm;53658;50.742;10.864;2023-03-05T08:25:05;38.66;35.36;40.71;;
66747;Laerm;53658;50.742;10.864;2023-03-05T08:27:32;38.67;35.66;41.38;;
66747;Laerm;53658;50.742;10.864;2023-03-05T08:30:00;38.67;35.66;40.98;;
66747;Laerm;53658;50.742;10.864;2023-03-05T08:32:26;38.68;35.94;41.06;;
66747;Laerm;53658;50.742;10.864;2023-03-05T08:34:55;38.71;35.36;41.38;;
66747;Laerm;53658;50.742;10.864;2023-03-05T08:37:23;38.68;35.66;40.89;;
66747;Laerm;53658;50.742;10.864;2023-03-05T08:39:50;38.75;36.20;46.55;;
66747;Laerm;53658;50.742;10.864;2023-03-05T08:42:16;38.69;35.36;41.82;;
66747;Laerm;53658;50.742;10.864;2023-03-05T08:44:42;38.63;35.36;40.71;;
66747;Laerm;53658;50.742;10.864;2023-03-05T08:47:08;38.62;35.66;40.80;;
66747;Laerm;53658;50.742;10.864;2023-03-05T08:49:34;38.63;35.66;41.06;;
66747;Laerm;53658;50.742;10.864;2023-03-05T08:52:00;38.66;35.66;41.30;;
66747;Laerm;53658;50.742;10.864;2023-03-05T08:54:26;38.64;35.36;40.80;;
66747;Laerm;53658;50.742;10.864;2023-03-05T08:56:52;38.63;35.66;40.98;;
66747;Laerm;53658;50.742;10.864;2023-03-05T08:59:19;38.66;35.04;41.06;;
66747;Laerm;53658;50.742;10.864;2023-03-05T09:01:45;38.65;35.66;41.89;;
66747;Laerm;53658;50.742;10.864;2023-03-05T09:04:11;38.66;35.36;41.14;;
66747;Laerm;53658;50.742;10.864;2023-03-05T09:06:37;38.66;35.36;41.38;;
66747;Laerm;53658;50.742;10.864;2023-03-05T09:09:07;38.66;35.36;41.75;;
66747;Laerm;53658;50.742;10.864;2023-03-05T09:11:33;38.68;36.20;41.06;;
66747;Laerm;53658;50.742;10.864;2023-03-05T09:14:02;38.66;35.36;40.98;;
66747;Laerm;53658;50.742;10.864;2023-03-05T09:16:28;38.65;36.20;40.89;;
66747;Laerm;53658;50.742;10.864;2023-03-05T09:18:54;38.65;35.66;40.98;;
66747;Laerm;53658;50.742;10.864;2023-03-05T09:21:20;38.64;35.66;40.71;;
66747;Laerm;53658;50.742;10.864;2023-03-05T09:23:47;38.65;35.66;40.89;;
66747;Laerm;53658;50.742;10.864;2023-03-05T09:26:14;38.65;35.36;40.71;;
66747;Laerm;53658;50.742;10.864;2023-03-05T09:28:44;38.66;36.10;40.89;;
66747;Laerm;53658;50.742;10.864;2023-03-05T09:31:11;38.65;35.94;41.06;;
66747;Laerm;53658;50.742;10.864;2023-03-05T09:33:38;38.66;35.66;40.89;;
66747;Laerm;53658;50.742;10.864;2023-03-05T09:36:05;38.68;35.66;41.06;;
66747;Laerm;53658;50.742;10.864;2023-03-05T09:38:42;38.75;35.66;40.98;;
66747;Laerm;53658;50.742;10.864;2023-03-05T09:41:15;38.73;35.94;41.06;;
66747;Laerm;53658;50.742;10.864;2023-03-05T09:44:01;38.77;35.66;41.14;;
66747;Laerm;53658;50.742;10.864;2023-03-05T09:50:13;38.83;36.20;40.71;;
66747;Laerm;53658;50.742;10.864;2023-03-05T09:52:19;38.93;36.20;40.80;;
66747;Laerm;53658;50.742;10.864;2023-03-05T09:54:53;39.11;36.69;43.19;;
66747;Laerm;53658;50.742;10.864;2023-03-05T09:57:34;39.07;36.69;40.98;;
66747;Laerm;53658;50.742;10.864;2023-03-05T10:03:09;39.34;37.12;41.61;;
66747;Laerm;53658;50.742;10.864;2023-03-05T10:14:35;39.64;37.52;41.38;;
66747;Laerm;53658;50.742;10.864;2023-03-05T10:22:21;39.83;38.05;41.68;;
66747;Laerm;53658;50.742;10.864;2023-03-05T10:27:20;40.03;37.88;42.82;;
66747;Laerm;53658;50.742;10.864;2023-03-05T10:40:40;39.69;37.12;41.53;;
66747;Laerm;53658;50.742;10.864;2023-03-05T10:45:52;39.55;37.32;43.58;;
66747;Laerm;53658;50.742;10.864;2023-03-05T10:48:32;39.44;36.91;41.38;;
66747;Laerm;53658;50.742;10.864;2023-03-05T10:56:11;39.35;36.91;41.22;;
66747;Laerm;53658;50.742;10.864;2023-03-05T10:58:38;39.41;36.69;42.59;;
66747;Laerm;53658;50.742;10.864;2023-03-05T11:01:22;39.42;36.69;44.31;;
66747;Laerm;53658;50.742;10.864;2023-03-05T11:04:03;39.09;36.91;41.30;;
66747;Laerm;53658;50.742;10.864;2023-03-05T11:12:11;38.88;36.20;41.14;;
66747;Laerm;53658;50.742;10.864;2023-03-05T11:15:19;38.75;35.94;40.80;;
66747;Laerm;53658;50.742;10.864;2023-03-05T11:17:39;38.73;35.94;40.80;;
66747;Laerm;53658;50.742;10.864;2023-03-05T11:23:16;38.67;35.66;40.89;;
66747;Laerm;53658;50.742;10.864;2023-03-05T11:28:34;38.67;36.20;40.71;;
66747;Laerm;53658;50.742;10.864;2023-03-05T11:31:05;38.76;35.66;41.06;;
66747;Laerm;53658;50.742;10.864;2023-03-05T11:33:35;38.90;36.45;40.89;;
66747;Laerm;53658;50.742;10.864;2023-03-05T11:41:59;39.34;37.32;41.06;;
66747;Laerm;53658;50.742;10.864;2023-03-05T11:47:48;39.58;37.32;41.46;;
66747;Laerm;53658;50.742;10.864;2023-03-05T11:52:46;39.65;37.32;41.61;;
66747;Laerm;53658;50.742;10.864;2023-03-05T11:58:03;39.44;37.12;41.19;;
66747;Laerm;53658;50.742;10.864;2023-03-05T12:00:42;39.44;36.91;41.30;;
66747;Laerm;53658;50.742;10.864;2023-03-05T12:03:18;39.52;37.12;42.22;;
66747;Laerm;53658;50.742;10.864;2023-03-05T12:05:50;39.21;37.12;41.06;;
66747;Laerm;53658;50.742;10.864;2023-03-05T12:08:24;38.98;36.20;45.57;;
66747;Laerm;53658;50.742;10.864;2023-03-05T12:10:51;39.06;36.69;41.61;;
66747;Laerm;53658;50.742;10.864;2023-03-05T12:13:41;39.08;36.45;40.71;;
66747;Laerm;53658;50.742;10.864;2023-03-05T12:16:45;39.16;36.45;40.98;;
66747;Laerm;53658;50.742;10.864;2023-03-05T12:22:01;39.28;37.12;45.77;;
66747;Laerm;53658;50.742;10.864;2023-03-05T12:26:55;39.16;36.20;42.29;;
66747;Laerm;53658;50.742;10.864;2023-03-05T12:29:46;39.09;36.69;43.86;;
66747;Laerm;53658;50.742;10.864;2023-03-05T12:47:45;38.89;36.20;40.98;;
66747;Laerm;53658;50.742;10.864;2023-03-05T13:01:02;39.02;36.20;41.06;;
66747;Laerm;53658;50.742;10.864;2023-03-05T13:03:39;38.82;36.45;41.11;;
66747;Laerm;53658;50.742;10.864;2023-03-05T13:06:23;38.65;35.94;41.06;;
66747;Laerm;53658;50.742;10.864;2023-03-05T13:09:06;38.65;35.36;40.80;;
66747;Laerm;53658;50.742;10.864;2023-03-05T13:11:37;38.68;35.94;41.14;;
66747;Laerm;53658;50.742;10.864;2023-03-05T13:14:03;38.81;35.94;45.97;;
66747;Laerm;53658;50.742;10.864;2023-03-05T13:16:48;38.81;36.20;41.38;;
66747;Laerm;53658;50.742;10.864;2023-03-05T13:19:16;38.78;35.66;40.80;;
66747;Laerm;53658;50.742;10.864;2023-03-05T13:21:43;38.84;35.66;40.98;;
66747;Laerm;53658;50.742;10.864;2023-03-05T13:24:17;38.87;36.20;40.98;;
66747;Laerm;53658;50.742;10.864;2023-03-05T13:26:44;38.84;35.66;40.80;;
66747;Laerm;53658;50.742;10.864;2023-03-05T13:34:27;38.72;35.66;40.71;;
66747;Laerm;53658;50.742;10.864;2023-03-05T13:39:29;38.67;35.66;42.41;;
66747;Laerm;53658;50.742;10.864;2023-03-05T13:42:03;38.66;35.66;40.80;;
66747;Laerm;53658;50.742;10.864;2023-03-05T13:44:31;38.77;34.69;43.34;;
66747;Laerm;53658;50.742;10.864;2023-03-05T13:47:17;38.62;35.66;41.14;;
66747;Laerm;53658;50.742;10.864;2023-03-05T13:49:44;38.64;35.66;40.98;;
66747;Laerm;53658;50.742;10.864;2023-03-05T13:52:25;38.64;35.66;40.80;;
66747;Laerm;53658;50.742;10.864;2023-03-05T13:54:52;38.66;35.66;40.89;;
66747;Laerm;53658;50.742;10.864;2023-03-05T13:57:37;38.64;34.69;40.80;;
66747;Laerm;53658;50.742;10.864;2023-03-05T14:00:27;38.66;35.66;40.80;;
66747;Laerm;53658;50.742;10.864;2023-03-05T14:02:56;38.65;35.36;40.89;;
66747;Laerm;53658;50.742;10.864;2023-03-05T14:05:22;38.65;35.66;40.89;;
66747;Laerm;53658;50.742;10.864;2023-03-05T14:07:50;38.66;35.94;41.06;;
66747;Laerm;53658;50.742;10.864;2023-03-05T14:10:33;38.64;35.36;40.80;;
66747;Laerm;53658;50.742;10.864;2023-03-05T14:13:20;38.65;35.36;40.80;;
66747;Laerm;53658;50.742;10.864;2023-03-05T14:16:22;38.64;35.66;40.71;;
66747;Laerm;53658;50.742;10.864;2023-03-05T14:18:57;38.64;35.94;41.22;;
66747;Laerm;53658;50.742;10.864;2023-03-05T14:21:24;38.61;35.66;40.98;;
66747;Laerm;53658;50.742;10.864;2023-03-05T14:23:52;38.64;35.94;41.75;;
66747;Laerm;53658;50.742;10.864;2023-03-05T14:26:29;38.71;34.69;41.14;;
66747;Laerm;53658;50.742;10.864;2023-03-05T14:32:06;38.76;35.66;41.38;;
66747;Laerm;53658;50.742;10.864;2023-03-05T14:34:39;38.68;35.36;41.06;;
66747;Laerm;53658;50.742;10.864;2023-03-05T14:37:19;38.67;35.04;41.30;;
66747;Laerm;53658;50.742;10.864;2023-03-05T14:39:55;38.67;35.66;40.98;;
66747;Laerm;53658;50.742;10.864;2023-03-05T14:42:49;38.67;35.04;40.80;;
66747;Laerm;53658;50.742;10.864;2023-03-05T14:45:21;38.79;35.94;40.89;;
66747;Laerm;53658;50.742;10.864;2023-03-05T14:47:52;38.90;36.20;41.22;;
66747;Laerm;53658;50.742;10.864;2023-03-05T14:50:22;38.72;35.94;41.22;;
66747;Laerm;53658;50.742;10.864;2023-03-05T14:52:55;38.68;35.04;40.80;;
66747;Laerm;53658;50.742;10.864;2023-03-05T14:55:25;38.65;35.36;40.98;;
66747;Laerm;53658;50.742;10.864;2023-03-05T14:58:01;38.77;35.66;41.75;;
66747;Laerm;53658;50.742;10.864;2023-03-05T15:00:30;38.73;35.94;40.71;;
66747;Laerm;53658;50.742;10.864;2023-03-05T15:02:57;38.78;35.94;41.06;;
66747;Laerm;53658;50.742;10.864;2023-03-05T15:05:24;38.76;35.66;41.14;;
66747;Laerm;53658;50.742;10.864;2023-03-05T15:07:50;38.78;36.20;40.89;;
66747;Laerm;53658;50.742;10.864;2023-03-05T15:10:19;38.79;35.94;41.30;;
66747;Laerm;53658;50.742;10.864;2023-03-05T15:12:46;38.83;35.66;41.30;;
66747;Laerm;53658;50.742;10.864;2023-03-05T15:15:17;38.80;35.66;41.06;;
66747;Laerm;53658;50.742;10.864;2023-03-05T15:17:47;38.73;35.36;40.80;;
66747;Laerm;53658;50.742;10.864;2023-03-05T15:20:17;38.70;35.66;40.89;;
66747;Laerm;53658;50.742;10.864;2023-03-05T15:22:44;38.69;35.66;41.06;;
66747;Laerm;53658;50.742;10.864;2023-03-05T15:25:10;38.72;35.36;40.98;;
66747;Laerm;53658;50.742;10.864;2023-03-05T15:27:37;38.67;35.66;40.98;;
66747;Laerm;53658;50.742;10.864;2023-03-05T15:30:05;38.66;35.94;41.14;;
66747;Laerm;53658;50.742;10.864;2023-03-05T15:32:32;38.64;35.66;40.80;;
66747;Laerm;53658;50.742;10.864;2023-03-05T15:34:59;38.67;35.36;40.98;;
66747;Laerm;53658;50.742;10.864;2023-03-05T15:37:27;38.67;35.59;41.22;;